Aérodrome :
LOGIN :

S'inscrire | Disclaimer

   EN    FR    IT 

 










Légende :    VFR   VFR Marginal   IFR   IFR Intensif   IFR Très Intensif
Visi : 
Plafond : 
>= 8 km
>= 3000ft
5 à 8 km
1000 à 3000 ft
1500m à 5 km
500 à 1000 ft
800 à 1500m
200 à 500 ft
< 800m
< 200 ft
Symboles :   Orages  Brouillard  Fortes neiges  Fortes précipitations  Vent > 20 kt
SIGMETs :   Divers  Orages  Givrage  Turbulence  Onde Orograph.  Cendres Volcan.







- Altitude de l'aérodrome : 59 ft
- Code IATA : TSF


LIPH - Treviso

DERNIER METAR :
  • 101950Z VRB02KT CAVOK 02/02 Q1016

METARs EXPIRÉS :
  • 101920Z VRB02KT CAVOK 02/01 Q1016
  • 101850Z VRB02KT 8000 NSC 03/03 Q1016
  • 101820Z VRB02KT 8000 NSC 04/03 Q1016
  • 101750Z VRB02KT 8000 NSC 04/04 Q1016
  • 101720Z VRB02KT 8000 NSC 05/04 Q1016

TAF TAF LIPH
Valide du 10 à 18h jusqu'au 11 à 18h UTC


101700Z 1018/1118 VRB05KT 8000 NSC
Pas de NOTAMs connus pour ce terrain.
2 SIGMETs publiés pour la FIR Milano (LIMM) :
 
Turbulence forte
LIMM SIGMET 16 VALID 101940/102340 LIIP
LIMM MILANO FIR SEV TURB FCST ENTIRE FIR ABV FL220 STNR NC=
Turbulence forte
LIMM SIGMET 15 VALID 101915/102115 LIIP
LIMM MILANO FIR SEV TURB FCST WI N4459 E00932 - N4331 E01316 - N4345 E01055 - N4445 E00903 - N4459 E00932 ABV FL030 STNR WKN=



MET'MAP, la Météo Aéronautique d'un coup d'oeil ! - Copyright ORBIFLY Décembre 2007 - Disclaimer

ORBIFLY MET'MAP TEAM :

Programmation & Développement : Alexandra Zaïnal
Conception & Développement : Baudouin d'Aumeries
Co-Programmation & Développement : Marc-Olivier Méhu
Soutien technique & logistique : Manuel Goepfert

Contact : metmap@orbifly.com




SOURCES & CREDITS :

   NOAA